This is the latest recevied weather packets stored in our database for station/object OM8AKX-12. If no packets are shown the sender has not sent any weather packets the latest 10 day(s).
| Time | Temp. | Humidity | Pressure | Rain* | Wind** | Luminosity | Snow |
|---|---|---|---|---|---|---|---|
| 1777948805 | 7.78° C | 81% | 1010.5 hPa | - | - | - | - |
| 1777947005 | 6.67° C | 87% | 1010.5 hPa | - | - | - | - |
| 1777945211 | 7.22° C | 78% | 1010.6 hPa | - | - | - | - |
| 1777944304 | 7.78° C | 77% | 1010.6 hPa | - | - | - | - |
| 1777942506 | 9.44° C | 69% | 1010.5 hPa | - | - | - | - |
| 1777941604 | 8.89° C | 74% | 1010.5 hPa | - | - | - | - |
| 1777939807 | 9.44° C | 72% | 1010.7 hPa | - | - | - | - |
| 1777938904 | 8.89° C | 71% | 1010.7 hPa | - | - | - | - |
| 1777938004 | 9.44° C | 66% | 1010.9 hPa | - | - | - | - |
| 1777937110 | 10.56° C | 62% | 1010.9 hPa | - | - | - | - |
| 1777936204 | 9.44° C | 64% | 1011.1 hPa | - | - | - | - |
| 1777935304 | 10° C | 63% | 1011.1 hPa | - | - | - | - |
| 1777933503 | 9.44° C | 61% | 1011.2 hPa | - | - | - | - |
| 1777932613 | 10° C | 57% | 1011.3 hPa | - | - | - | - |
| 1777931703 | 10.56° C | 57% | 1011.3 hPa | - | - | - | - |
| 1777929903 | 10° C | 59% | 1011.3 hPa | - | - | - | - |
| 1777929003 | 10.56° C | 55% | 1011.1 hPa | - | - | - | - |
| 1777928103 | 12.22° C | 50% | 1011.2 hPa | - | - | - | - |
| 1777924503 | 13.89° C | 45% | 1011 hPa | - | - | - | - |
| 1777923603 | 13.89° C | 45% | 1011 hPa | - | - | - | - |
| 1777922703 | 14.44° C | 43% | 1011 hPa | - | - | - | - |
| 1777921803 | 15° C | 41% | 1011 hPa | - | - | - | - |
| 1777920903 | 15° C | 40% | 1010.9 hPa | - | - | - | - |
| 1777920003 | 15.56° C | 39% | 1010.8 hPa | - | - | - | - |
| 1777919104 | 16.67° C | 35% | 1010.7 hPa | - | - | - | - |
* Rain since midnight (hover to see other rain measurements)
** Current wind speed in m/s (hover to see current wind gust speed)